createdAt,value
2018-01-29T00:00:35.256Z,22.87
2018-01-29T00:03:03.892Z,21.58
2018-01-29T00:05:32.572Z,20.60
2018-01-29T00:08:01.286Z,23.02
2018-01-29T00:10:29.925Z,21.37
2018-01-29T00:12:58.580Z,20.83
2018-01-29T00:15:27.984Z,22.20
2018-01-29T00:17:57.388Z,23.65
2018-01-29T00:20:26.812Z,24.77
2018-01-29T00:22:55.448Z,22.48
2018-01-29T00:25:24.100Z,21.87
2018-01-29T00:27:52.793Z,20.50
2018-01-29T00:30:21.480Z,22.25
2018-01-29T00:32:50.144Z,23.00
2018-01-29T00:35:18.779Z,20.48
2018-01-29T00:37:47.444Z,19.77
2018-01-29T00:40:16.085Z,17.90
2018-01-29T00:42:45.495Z,18.42
2018-01-29T00:45:14.143Z,16.73
2018-01-29T00:47:42.589Z,16.40
2018-01-29T00:50:11.044Z,15.95
2018-01-29T00:52:39.732Z,15.13
2018-01-29T00:55:07.720Z,16.42
2018-01-29T00:57:36.368Z,16.12
2018-01-29T01:00:05.486Z,14.35
2018-01-29T01:02:34.123Z,15.40
2018-01-29T01:05:02.445Z,18.08
2018-01-29T01:07:31.101Z,15.75
2018-01-29T01:09:59.765Z,15.80
2018-01-29T01:12:28.420Z,17.33
2018-01-29T01:14:57.092Z,13.77
2018-01-29T01:17:25.736Z,14.68
2018-01-29T01:19:54.389Z,14.77
2018-01-29T01:22:23.093Z,13.43
2018-01-29T01:24:51.740Z,14.13
2018-01-29T01:27:20.060Z,12.48
2018-01-29T01:29:48.748Z,13.48
2018-01-29T01:32:17.413Z,12.45
2018-01-29T01:34:46.058Z,13.93
2018-01-29T01:37:15.504Z,9.80
2018-01-29T01:39:44.148Z,11.85
2018-01-29T01:42:13.380Z,10.55
2018-01-29T01:44:42.064Z,10.70
2018-01-29T01:47:10.736Z,11.73
2018-01-29T01:49:39.388Z,10.60
2018-01-29T01:52:07.704Z,10.15
2018-01-29T01:54:36.375Z,9.85
2018-01-29T01:57:05.789Z,9.70
2018-01-29T01:59:34.425Z,11.43
2018-01-29T02:02:03.092Z,10.98
2018-01-29T02:04:31.734Z,11.98
2018-01-29T02:07:00.380Z,11.70
2018-01-29T02:09:29.057Z,10.80
2018-01-29T02:11:57.704Z,10.43
2018-01-29T02:14:27.116Z,9.60
2018-01-29T02:16:55.772Z,11.32
2018-01-29T02:19:24.555Z,9.25
2018-01-29T02:21:52.883Z,9.63
2018-01-29T02:24:22.296Z,8.93
2018-01-29T02:26:50.960Z,6.95
2018-01-29T02:29:19.627Z,7.57
2018-01-29T02:31:49.032Z,7.05
2018-01-29T02:34:18.436Z,6.55
2018-01-29T02:36:47.367Z,6.82
2018-01-29T02:39:15.996Z,5.90
2018-01-29T02:41:44.643Z,5.00
2018-01-29T02:44:13.292Z,3.97
2018-01-29T02:46:41.775Z,3.40
2018-01-29T02:49:11.025Z,4.07
2018-01-29T02:51:39.496Z,3.53
2018-01-29T02:54:07.950Z,3.87
2018-01-29T02:56:37.233Z,4.45
2018-01-29T02:59:06.512Z,4.40
2018-01-29T03:01:35.156Z,4.30
2018-01-29T03:04:03.605Z,3.30
2018-01-29T03:06:33.088Z,4.05
2018-01-29T03:09:01.729Z,3.70
2018-01-29T03:11:30.370Z,3.97
2018-01-29T03:13:59.070Z,3.83
2018-01-29T03:16:27.853Z,3.85
2018-01-29T03:18:56.480Z,3.78
2018-01-29T03:21:25.120Z,3.50
2018-01-29T03:23:53.775Z,3.55
2018-01-29T03:26:22.440Z,2.87
2018-01-29T03:28:51.079Z,3.67
2018-01-29T03:31:19.708Z,3.33
2018-01-29T03:33:48.364Z,3.00
2018-01-29T03:36:17.761Z,3.47
2018-01-29T03:38:46.400Z,3.35
2018-01-29T03:41:15.072Z,3.80
2018-01-29T03:43:43.700Z,4.10
2018-01-29T03:46:12.340Z,3.03
2018-01-29T03:48:41.092Z,3.03
2018-01-29T03:51:09.720Z,2.80
2018-01-29T03:53:38.349Z,2.80
2018-01-29T03:56:07.008Z,4.05
2018-01-29T03:58:35.644Z,3.80
2018-01-29T04:01:05.037Z,3.47
2018-01-29T04:03:33.687Z,3.12
2018-01-29T04:06:02.355Z,3.90
2018-01-29T04:08:30.995Z,4.30
2018-01-29T04:10:59.619Z,4.53
2018-01-29T04:13:28.300Z,4.40
2018-01-29T04:15:56.932Z,4.70
2018-01-29T04:18:25.313Z,3.72
2018-01-29T04:20:54.029Z,3.30
2018-01-29T04:23:23.432Z,3.35
2018-01-29T04:25:52.866Z,3.15
2018-01-29T04:28:21.700Z,3.53
2018-01-29T04:30:50.375Z,3.50
2018-01-29T04:33:19.017Z,3.15
2018-01-29T04:35:47.660Z,2.97
2018-01-29T04:38:16.328Z,2.97
2018-01-29T04:40:44.963Z,3.35
2018-01-29T04:43:14.367Z,3.60
2018-01-29T04:45:44.063Z,5.70
2018-01-29T04:48:12.688Z,3.97
2018-01-29T04:50:41.335Z,2.78
2018-01-29T04:53:10.546Z,3.25
2018-01-29T04:55:39.957Z,2.83
2018-01-29T04:58:09.384Z,2.80
2018-01-29T05:00:38.008Z,3.20
2018-01-29T05:03:06.652Z,2.28
2018-01-29T05:05:35.312Z,2.97
2018-01-29T05:08:04.372Z,2.83
2018-01-29T05:10:32.999Z,2.95
2018-01-29T05:13:02.424Z,3.05
2018-01-29T05:15:31.058Z,2.85
2018-01-29T05:17:59.810Z,2.70
2018-01-29T05:20:28.453Z,3.30
2018-01-29T05:22:57.269Z,3.53
2018-01-29T05:25:25.937Z,4.15
2018-01-29T05:27:54.632Z,5.00
2018-01-29T05:30:23.316Z,8.07
2018-01-29T05:32:51.956Z,3.83
2018-01-29T05:38:47.464Z,4.97
2018-01-29T05:41:15.948Z,4.57
2018-01-29T05:43:44.392Z,4.57
2018-01-29T05:46:13.785Z,5.60
2018-01-29T05:48:42.263Z,3.20
2018-01-29T05:51:10.052Z,5.20
2018-01-29T05:53:38.493Z,3.80
2018-01-29T05:56:07.136Z,3.37
2018-01-29T05:58:35.759Z,3.70
2018-01-29T06:01:04.390Z,3.78
2018-01-29T06:03:33.036Z,3.60
2018-01-29T06:06:01.676Z,2.92
2018-01-29T06:08:30.368Z,3.08
2018-01-29T06:10:58.676Z,3.92
2018-01-29T06:13:27.360Z,3.75
2018-01-29T06:15:56.024Z,3.55
2018-01-29T06:18:24.655Z,3.85
2018-01-29T06:20:53.299Z,3.40
2018-01-29T06:23:21.620Z,3.75
2018-01-29T06:25:50.257Z,3.62
2018-01-29T06:28:18.912Z,3.12
2018-01-29T06:30:48.368Z,3.87
2018-01-29T06:33:17.061Z,3.55
2018-01-29T06:35:45.748Z,2.90
2018-01-29T06:38:14.437Z,3.80
2018-01-29T06:40:43.128Z,3.22
2018-01-29T06:43:11.797Z,3.53
2018-01-29T06:45:40.452Z,3.30
2018-01-29T06:48:09.876Z,2.95
2018-01-29T06:50:38.557Z,2.85
2018-01-29T06:53:07.074Z,3.67
2018-01-29T06:55:35.822Z,3.72
2018-01-29T06:58:04.542Z,3.30
2018-01-29T07:00:33.492Z,3.65
2018-01-29T07:03:02.354Z,4.80
2018-01-29T07:05:31.353Z,4.07
2018-01-29T07:08:00.971Z,3.33
2018-01-29T07:10:30.665Z,3.53
2018-01-29T07:12:59.333Z,3.83
2018-01-29T07:15:28.025Z,4.18
2018-01-29T07:17:57.708Z,5.90
2018-01-29T07:20:26.372Z,5.40
2018-01-29T07:22:55.040Z,4.50
2018-01-29T07:25:23.980Z,4.75
2018-01-29T07:27:52.675Z,4.50
2018-01-29T07:30:21.197Z,4.37
2018-01-29T07:32:49.888Z,4.87
2018-01-29T07:35:19.365Z,5.57
2018-01-29T07:37:48.024Z,4.70
2018-01-29T07:40:16.696Z,4.00
2018-01-29T07:42:45.355Z,4.32
2018-01-29T07:45:15.041Z,5.40
2018-01-29T07:47:43.078Z,4.60
2018-01-29T07:50:11.773Z,5.60
2018-01-29T07:52:40.664Z,6.65
2018-01-29T07:55:09.420Z,5.47
2018-01-29T07:57:38.074Z,6.05
2018-01-29T08:00:06.766Z,5.30
2018-01-29T08:02:35.432Z,4.75
2018-01-29T08:05:03.761Z,5.12
2018-01-29T08:07:32.429Z,4.43
2018-01-29T08:10:01.098Z,3.95
2018-01-29T08:12:29.742Z,4.12
2018-01-29T08:14:58.414Z,4.07
2018-01-29T08:17:27.153Z,4.10
2018-01-29T08:19:55.809Z,3.00
2018-01-29T08:22:24.501Z,3.22
2018-01-29T08:24:53.153Z,3.67
2018-01-29T08:27:21.790Z,3.42
2018-01-29T08:29:50.465Z,3.90
2018-01-29T08:32:19.112Z,4.07
2018-01-29T08:34:47.757Z,4.00
2018-01-29T08:37:16.401Z,4.43
2018-01-29T08:39:45.048Z,6.28
2018-01-29T08:42:14.465Z,6.82
2018-01-29T08:44:42.957Z,10.20
2018-01-29T08:47:11.415Z,7.75
2018-01-29T08:49:40.065Z,5.47
2018-01-29T08:52:09.241Z,3.67
2018-01-29T08:54:37.625Z,3.40
2018-01-29T08:57:06.005Z,3.00
2018-01-29T08:59:34.413Z,2.90
2018-01-29T09:02:03.557Z,3.40
2018-01-29T09:04:31.941Z,2.63
2018-01-29T09:07:00.351Z,3.10
2018-01-29T09:09:28.742Z,3.10
2018-01-29T09:11:57.952Z,2.10
2018-01-29T09:14:27.155Z,3.80
2018-01-29T09:16:55.558Z,3.30
2018-01-29T09:19:24.013Z,3.60
2018-01-29T09:21:53.178Z,3.40
2018-01-29T09:24:21.594Z,3.23
2018-01-29T09:26:50.766Z,2.80
2018-01-29T09:29:19.166Z,2.67
2018-01-29T09:31:48.342Z,3.53
2018-01-29T09:34:16.762Z,2.50
2018-01-29T09:36:45.166Z,2.63
2018-01-29T09:39:14.327Z,3.20
2018-01-29T09:41:42.746Z,2.63
2018-01-29T09:44:11.130Z,2.47
2018-01-29T09:46:39.526Z,2.10
2018-01-29T09:49:07.758Z,3.63
2018-01-29T09:51:36.140Z,1.50
2018-01-29T09:54:04.526Z,1.70
2018-01-29T09:56:32.934Z,1.60
2018-01-29T09:59:01.318Z,1.63
2018-01-29T10:01:29.745Z,1.30
2018-01-29T10:03:58.902Z,1.87
2018-01-29T10:06:27.294Z,2.47
2018-01-29T10:08:55.741Z,1.70
2018-01-29T10:11:24.161Z,1.90
2018-01-29T10:13:52.553Z,2.00
2018-01-29T10:16:21.765Z,2.37
2018-01-29T10:18:50.908Z,2.33
2018-01-29T10:21:19.285Z,2.43
2018-01-29T10:23:47.713Z,2.53
2018-01-29T10:26:16.852Z,2.10
2018-01-29T10:28:45.225Z,3.00
2018-01-29T10:31:13.624Z,2.60
2018-01-29T10:33:41.998Z,2.30
2018-01-29T10:36:10.365Z,1.90
2018-01-29T10:38:38.757Z,2.40
2018-01-29T10:41:07.138Z,1.70
2018-01-29T10:43:35.540Z,1.53
2018-01-29T10:46:04.106Z,1.40
2018-01-29T10:48:32.481Z,1.27
2018-01-29T10:51:00.849Z,1.60
2018-01-29T10:53:29.240Z,1.43
2018-01-29T10:55:57.619Z,1.77
2018-01-29T10:58:26.001Z,1.80
2018-01-29T11:01:09.996Z,2.00
2018-01-29T11:03:39.141Z,1.70
2018-01-29T11:06:07.557Z,1.63
2018-01-29T11:08:35.929Z,2.20
2018-01-29T11:11:04.304Z,1.90
2018-01-29T11:13:32.718Z,1.63
2018-01-29T11:16:01.100Z,1.70
2018-01-29T11:18:29.472Z,2.50
2018-01-29T11:20:57.911Z,2.20
2018-01-29T11:23:26.380Z,2.10
2018-01-29T11:25:54.754Z,1.63
2018-01-29T11:28:23.157Z,1.27
2018-01-29T11:30:51.528Z,1.73
2018-01-29T11:33:19.904Z,1.37
2018-01-29T11:35:48.294Z,1.30
2018-01-29T11:38:16.664Z,1.33
2018-01-29T11:40:45.060Z,1.07
2018-01-29T11:43:13.434Z,1.20
2018-01-29T11:45:41.804Z,1.37
2018-01-29T11:48:10.200Z,1.67
2018-01-29T11:50:38.568Z,1.30
2018-01-29T11:53:06.940Z,1.50
2018-01-29T11:55:35.323Z,1.20
2018-01-29T11:58:03.690Z,1.50
2018-01-29T12:00:32.077Z,1.10
2018-01-29T12:03:00.457Z,1.40
2018-01-29T12:05:28.824Z,1.80
2018-01-29T12:07:57.194Z,1.30
2018-01-29T12:10:25.587Z,1.30
2018-01-29T12:12:53.985Z,1.13
2018-01-29T12:15:22.536Z,1.00
2018-01-29T12:17:50.946Z,1.33
2018-01-29T12:20:19.313Z,1.60
2018-01-29T12:22:47.687Z,1.70
2018-01-29T12:25:16.092Z,2.10
2018-01-29T12:27:44.472Z,1.77
2018-01-29T12:30:12.177Z,2.37
2018-01-29T12:32:41.337Z,1.87
2018-01-29T12:35:09.735Z,2.80
2018-01-29T12:37:38.120Z,2.13
2018-01-29T12:40:06.485Z,2.17
2018-01-29T12:42:34.890Z,2.20
2018-01-29T12:45:03.265Z,2.60
2018-01-29T12:47:31.672Z,2.10
2018-01-29T12:50:00.494Z,3.07
2018-01-29T12:52:28.862Z,2.10
2018-01-29T12:54:57.253Z,2.33
2018-01-29T12:57:25.621Z,2.80
2018-01-29T12:59:53.999Z,3.23
2018-01-29T13:02:22.457Z,2.90
2018-01-29T13:04:51.600Z,3.10
2018-01-29T13:07:20.005Z,4.10
2018-01-29T13:09:48.406Z,4.40
2018-01-29T13:12:17.625Z,4.67
2018-01-29T13:14:46.002Z,3.93
2018-01-29T13:17:14.387Z,4.50
2018-01-29T13:19:42.809Z,4.90
2018-01-29T13:22:11.247Z,4.83
2018-01-29T13:24:39.643Z,5.00
2018-01-29T13:27:08.062Z,5.77
2018-01-29T13:29:36.477Z,4.47
2018-01-29T13:32:04.548Z,5.93
2018-01-29T13:34:32.960Z,4.50
2018-01-29T13:37:02.117Z,4.60
2018-01-29T13:39:31.265Z,5.87
2018-01-29T13:41:59.686Z,4.80
2018-01-29T13:44:28.079Z,4.00
2018-01-29T13:46:56.577Z,4.50
2018-01-29T13:49:24.974Z,5.00
2018-01-29T13:51:53.370Z,3.50
2018-01-29T13:54:21.785Z,3.77
2018-01-29T13:56:51.261Z,4.07
2018-01-29T13:59:19.884Z,4.50
2018-01-29T14:01:49.059Z,4.20
2018-01-29T14:04:16.836Z,4.70
2018-01-29T14:06:45.224Z,4.70
2018-01-29T14:09:13.625Z,5.80
2018-01-29T14:11:42.865Z,5.00
2018-01-29T14:14:11.344Z,3.30
2018-01-29T14:16:40.493Z,4.90
2018-01-29T14:19:09.662Z,3.87
2018-01-29T14:21:38.049Z,4.40
2018-01-29T14:24:06.429Z,3.73
2018-01-29T14:26:34.829Z,4.50
2018-01-29T14:29:03.641Z,3.30
2018-01-29T14:31:32.016Z,3.70
2018-01-29T14:34:01.228Z,3.50
2018-01-29T14:36:29.776Z,3.47
2018-01-29T14:38:57.485Z,4.03
2018-01-29T14:41:25.952Z,4.97
2018-01-29T14:43:54.320Z,3.73
2018-01-29T14:46:23.453Z,3.50
2018-01-29T14:48:51.838Z,5.53
2018-01-29T14:51:20.213Z,3.23
2018-01-29T14:53:48.596Z,3.83
2018-01-29T14:56:16.985Z,3.80
2018-01-29T14:58:45.363Z,3.67
2018-01-29T15:01:13.792Z,3.77
2018-01-29T15:03:41.721Z,3.63
2018-01-29T15:06:10.114Z,3.77
2018-01-29T15:08:38.517Z,4.80
2018-01-29T15:11:07.661Z,3.90
2018-01-29T15:13:35.930Z,4.07
2018-01-29T15:16:03.857Z,4.10
2018-01-29T15:18:33.068Z,5.03
2018-01-29T15:21:01.577Z,4.13
2018-01-29T15:23:30.037Z,4.20
2018-01-29T15:25:58.511Z,4.43
2018-01-29T15:28:27.717Z,5.03
2018-01-29T15:30:56.138Z,5.40
2018-01-29T15:33:25.124Z,5.67
2018-01-29T15:35:53.551Z,6.13
2018-01-29T15:38:22.731Z,6.30
2018-01-29T15:40:51.179Z,6.80
2018-01-29T15:43:19.581Z,5.77
2018-01-29T15:45:48.007Z,5.20
2018-01-29T15:48:17.214Z,3.73
2018-01-29T15:50:45.904Z,5.03
2018-01-29T15:53:15.077Z,5.47
2018-01-29T15:55:43.524Z,10.73
2018-01-29T15:58:12.212Z,19.70
2018-01-29T16:00:40.895Z,20.95
2018-01-29T16:03:09.583Z,10.07
2018-01-29T16:05:38.244Z,13.25
2018-01-29T16:08:07.668Z,14.18
2018-01-29T16:10:37.101Z,12.13
2018-01-29T16:13:05.760Z,9.20
2018-01-29T16:15:34.561Z,6.75
2018-01-29T16:18:03.237Z,7.70
2018-01-29T16:20:31.890Z,7.75
2018-01-29T16:23:00.566Z,6.28
2018-01-29T16:25:29.245Z,10.48
2018-01-29T16:27:57.925Z,16.27
2018-01-29T16:30:26.597Z,18.05
2018-01-29T16:32:55.257Z,32.55
2018-01-29T16:35:23.929Z,17.00
2018-01-29T16:37:53.351Z,12.52
2018-01-29T16:40:22.030Z,12.25
2018-01-29T16:42:50.921Z,13.98
2018-01-29T16:45:20.343Z,16.23
2018-01-29T16:47:48.999Z,10.70
2018-01-29T16:50:18.421Z,9.85
2018-01-29T16:52:47.091Z,7.53
2018-01-29T16:55:15.776Z,7.32
2018-01-29T16:57:45.248Z,8.90
2018-01-29T17:00:13.909Z,9.35
2018-01-29T17:02:42.550Z,9.05
2018-01-29T17:05:11.079Z,9.30
2018-01-29T17:07:39.752Z,9.75
2018-01-29T17:10:08.418Z,8.90
2018-01-29T17:15:12.200Z,9.93
2018-01-29T17:17:41.129Z,8.95
2018-01-29T17:20:10.241Z,10.80
2018-01-29T17:22:38.376Z,9.57
2018-01-29T17:25:07.106Z,7.90
2018-01-29T17:27:36.157Z,7.50
2018-01-29T17:30:04.501Z,7.60
2018-01-29T17:32:34.445Z,7.82
2018-01-29T17:35:03.130Z,8.70
2018-01-29T17:37:31.812Z,7.75
2018-01-29T17:40:00.456Z,7.05
2018-01-29T17:42:29.856Z,4.78
2018-01-29T17:44:59.304Z,4.97
2018-01-29T17:47:27.941Z,5.40
2018-01-29T17:49:57.364Z,7.68
2018-01-29T17:52:26.029Z,5.43
2018-01-29T17:54:55.426Z,5.37
2018-01-29T17:57:24.053Z,5.15
2018-01-29T17:59:52.809Z,4.35
2018-01-29T18:02:22.203Z,4.82
2018-01-29T18:04:50.838Z,5.18
2018-01-29T18:07:19.177Z,4.82
2018-01-29T18:09:48.573Z,4.32
2018-01-29T18:12:17.252Z,5.05
2018-01-29T18:14:45.885Z,4.60
2018-01-29T18:17:14.523Z,5.93
2018-01-29T18:19:43.185Z,5.32
2018-01-29T18:22:11.857Z,7.62
2018-01-29T18:24:40.504Z,9.40
2018-01-29T18:27:09.189Z,7.45
2018-01-29T18:29:43.241Z,6.40
2018-01-29T18:32:12.262Z,5.70
2018-01-29T18:34:40.908Z,4.43
2018-01-29T18:37:09.553Z,6.05
2018-01-29T18:39:39.058Z,6.72
2018-01-29T18:42:07.895Z,6.80
2018-01-29T18:44:36.544Z,5.72
2018-01-29T18:47:06.160Z,6.32
2018-01-29T18:49:35.625Z,5.78
2018-01-29T18:52:04.265Z,6.32
2018-01-29T18:54:32.953Z,9.45
2018-01-29T18:57:01.603Z,9.00
2018-01-29T18:59:30.257Z,8.05
2018-01-29T19:01:58.921Z,9.43
2018-01-29T19:04:27.568Z,9.23
2018-01-29T19:06:56.051Z,8.68
2018-01-29T19:09:25.499Z,7.68
2018-01-29T19:11:53.493Z,7.47
2018-01-29T19:14:22.141Z,7.75
2018-01-29T19:16:50.812Z,6.43
2018-01-29T19:19:20.216Z,4.20
2018-01-29T19:21:49.616Z,6.43
2018-01-29T19:24:18.275Z,5.57
2018-01-29T19:26:46.922Z,6.05
2018-01-29T19:29:15.576Z,5.80
2018-01-29T19:31:45.013Z,4.93
2018-01-29T19:34:13.646Z,5.45
2018-01-29T19:36:42.302Z,5.28
2018-01-29T19:39:10.977Z,5.82
2018-01-29T19:41:39.617Z,4.28
2018-01-29T19:44:08.270Z,4.47
2018-01-29T19:46:37.126Z,3.92
2018-01-29T19:49:05.940Z,5.28
2018-01-29T19:51:34.570Z,4.00
2018-01-29T19:54:03.292Z,5.18
2018-01-29T19:56:31.636Z,4.87
2018-01-29T19:59:01.038Z,4.68
2018-01-29T20:01:30.476Z,5.35
2018-01-29T20:03:59.108Z,3.90
2018-01-29T20:06:27.762Z,4.07
2018-01-29T20:08:56.549Z,4.60
2018-01-29T20:11:25.184Z,4.07
2018-01-29T20:13:53.845Z,3.72
2018-01-29T20:16:22.506Z,4.22
2018-01-29T20:18:51.135Z,5.32
2018-01-29T20:21:19.768Z,3.70
2018-01-29T20:23:48.421Z,3.85
2018-01-29T20:26:17.052Z,3.37
2018-01-29T20:28:45.682Z,3.05
2018-01-29T20:31:14.526Z,4.00
2018-01-29T20:33:43.189Z,3.42
2018-01-29T20:36:12.663Z,3.12
2018-01-29T20:38:41.533Z,3.70
2018-01-29T20:41:10.171Z,3.05
2018-01-29T20:43:38.897Z,3.78
2018-01-29T20:46:07.569Z,3.95
2018-01-29T20:48:36.212Z,4.72
2018-01-29T20:51:04.937Z,3.90
2018-01-29T20:53:34.045Z,2.53
2018-01-29T20:56:03.707Z,3.60
2018-01-29T20:58:32.343Z,2.55
2018-01-29T21:01:01.025Z,3.22
2018-01-29T21:03:29.653Z,2.95
2018-01-29T21:05:58.317Z,2.97
2018-01-29T21:08:26.969Z,3.17
2018-01-29T21:10:55.601Z,1.92
2018-01-29T21:13:24.229Z,2.83
2018-01-29T21:15:53.656Z,1.98
2018-01-29T21:18:22.285Z,2.20
2018-01-29T21:20:50.932Z,2.58
2018-01-29T21:23:19.592Z,2.40
2018-01-29T21:25:48.985Z,2.40
2018-01-29T21:28:18.388Z,2.25
2018-01-29T21:30:47.828Z,2.90
2018-01-29T21:33:16.462Z,2.50
2018-01-29T21:35:44.778Z,2.47
2018-01-29T21:38:13.421Z,2.42
2018-01-29T21:40:45.681Z,3.03
2018-01-29T21:43:15.533Z,3.00
2018-01-29T21:45:44.214Z,2.67
2018-01-29T21:48:13.616Z,2.75
2018-01-29T21:50:43.045Z,2.30
2018-01-29T21:53:11.669Z,2.87
2018-01-29T21:55:40.315Z,2.72
2018-01-29T21:58:09.976Z,2.87
2018-01-29T22:00:38.620Z,2.28
2018-01-29T22:03:07.284Z,2.10
2018-01-29T22:05:36.745Z,2.85
2018-01-29T22:08:06.223Z,2.50
2018-01-29T22:10:35.012Z,2.25
2018-01-29T22:13:03.673Z,2.75
2018-01-29T22:15:32.324Z,2.65
2018-01-29T22:18:00.965Z,2.65
2018-01-29T22:20:29.280Z,2.75
2018-01-29T22:22:59.934Z,2.72
2018-01-29T22:25:29.261Z,2.70
2018-01-29T22:27:58.684Z,2.35
2018-01-29T22:30:27.332Z,2.53
2018-01-29T22:32:55.985Z,2.25
2018-01-29T22:35:24.816Z,2.62
2018-01-29T22:37:54.317Z,2.40
2018-01-29T22:40:23.801Z,2.58
2018-01-29T22:42:55.666Z,3.60
2018-01-29T22:45:24.357Z,2.58
2018-01-29T22:47:56.193Z,2.80
2018-01-29T22:50:24.188Z,2.17
2018-01-29T22:52:52.821Z,2.30
2018-01-29T22:55:21.453Z,2.90
2018-01-29T22:57:50.116Z,2.87
2018-01-29T23:00:18.952Z,2.30
2018-01-29T23:02:47.596Z,2.92
2018-01-29T23:05:16.268Z,2.33
2018-01-29T23:07:44.908Z,2.00
2018-01-29T23:10:13.537Z,2.30
2018-01-29T23:12:42.181Z,2.10
2018-01-29T23:15:10.849Z,2.50
2018-01-29T23:17:39.494Z,2.05
2018-01-29T23:20:08.138Z,1.87
2018-01-29T23:22:36.768Z,2.00
2018-01-29T23:25:05.393Z,2.40
2018-01-29T23:27:34.046Z,1.90
2018-01-29T23:30:02.689Z,1.67
2018-01-29T23:32:32.101Z,1.60
2018-01-29T23:35:01.516Z,1.45
2018-01-29T23:37:29.489Z,1.58
2018-01-29T23:39:58.121Z,1.75
2018-01-29T23:42:26.777Z,1.08
2018-01-29T23:44:55.396Z,1.80
2018-01-29T23:47:24.040Z,0.93
2018-01-29T23:49:52.700Z,1.15
2018-01-29T23:52:21.345Z,0.93
2018-01-29T23:54:49.992Z,1.25
2018-01-29T23:57:18.668Z,1.15
2018-01-29T23:59:48.068Z,0.85
